Terminal Aerodrome Forecast
Issued by NWS Newport/Morehead City, NC

Home | Current Version | Previous Version | Text Only | Print | Product List | Glossary On
Versions: 1 2 3 4 5 6 7 8 9 10 11 12 13 14 15 16 17 18 19 20 21 22 23 24
000
FTUS42 KMHX 160700 AAA
TAFEWN
TAF AMD
KEWN 160700Z 1607/1706 00000KT P6SM BKN040
     FM161500 27005KT P6SM BKN035
     FM161800 34005KT P6SM SCT040
     FM170000 VRB03KT P6SM BKN040=

USA.gov is the U.S. government's official web portal to all federal, state and local government web resources and services.